createdAt,value
2018-03-15T00:01:58.864Z,78.30
2018-03-15T00:04:32.030Z,78.10
2018-03-15T00:06:59.651Z,78.20
2018-03-15T00:09:27.580Z,78.40
2018-03-15T00:11:55.222Z,78.50
2018-03-15T00:14:22.867Z,78.50
2018-03-15T00:16:50.555Z,78.20
2018-03-15T00:19:18.177Z,78.30
2018-03-15T00:21:46.606Z,78.30
2018-03-15T00:24:14.366Z,78.20
2018-03-15T00:26:42.009Z,78.70
2018-03-15T00:29:09.658Z,79.00
2018-03-15T00:31:38.046Z,79.10
2018-03-15T00:34:06.469Z,79.40
2018-03-15T00:36:34.093Z,79.30
2018-03-15T00:39:02.491Z,79.30
2018-03-15T00:41:30.087Z,79.30
2018-03-15T00:43:57.776Z,79.40
2018-03-15T00:46:25.385Z,79.60
2018-03-15T00:48:53.793Z,79.40
2018-03-15T00:51:21.452Z,79.40
2018-03-15T00:53:49.127Z,79.40
2018-03-15T00:56:16.786Z,79.30
2018-03-15T00:58:45.271Z,78.80
2018-03-15T01:01:13.027Z,78.80
2018-03-15T01:03:41.422Z,78.90
2018-03-15T01:06:09.340Z,78.90
2018-03-15T01:08:36.987Z,78.90
2018-03-15T01:11:04.633Z,78.70
2018-03-15T01:13:32.258Z,79.00
2018-03-15T01:16:00.732Z,78.70
2018-03-15T01:18:28.449Z,78.70
2018-03-15T01:20:56.090Z,78.70
2018-03-15T01:23:23.743Z,79.00
2018-03-15T01:25:51.387Z,78.80
2018-03-15T01:28:19.020Z,78.40
2018-03-15T01:30:46.655Z,78.00
2018-03-15T01:33:15.128Z,78.20
2018-03-15T01:35:42.795Z,78.20
2018-03-15T01:38:10.586Z,78.50
2018-03-15T01:40:38.268Z,78.30
2018-03-15T01:43:05.886Z,78.20
2018-03-15T01:45:33.498Z,78.60
2018-03-15T01:48:01.161Z,78.60
2018-03-15T01:50:28.796Z,78.80
2018-03-15T01:52:56.538Z,78.90
2018-03-15T01:55:24.152Z,79.10
2018-03-15T01:57:52.560Z,79.20
2018-03-15T02:00:20.253Z,79.20
2018-03-15T02:02:48.646Z,79.40
2018-03-15T02:05:16.274Z,79.20
2018-03-15T02:07:43.888Z,79.30
2018-03-15T02:10:11.836Z,79.10
2018-03-15T02:12:39.511Z,79.10
2018-03-15T02:15:07.140Z,79.10
2018-03-15T02:17:34.768Z,79.00
2018-03-15T02:20:04.606Z,79.00
2018-03-15T02:22:33.005Z,78.90
2018-03-15T02:25:00.743Z,78.80
2018-03-15T02:27:29.178Z,78.90
2018-03-15T02:29:56.791Z,78.90
2018-03-15T02:32:24.567Z,78.90
2018-03-15T02:34:52.993Z,78.60
2018-03-15T02:37:20.617Z,78.60
2018-03-15T02:39:49.034Z,78.60
2018-03-15T02:42:16.659Z,78.60
2018-03-15T02:44:44.293Z,78.40
2018-03-15T02:47:11.987Z,78.30
2018-03-15T02:49:40.419Z,77.80
2018-03-15T02:52:08.060Z,77.40
2018-03-15T02:54:36.457Z,77.80
2018-03-15T02:57:04.127Z,77.80
2018-03-15T02:59:31.798Z,77.70
2018-03-15T03:01:59.573Z,77.70
2018-03-15T03:04:27.204Z,77.70
2018-03-15T03:06:55.581Z,78.10
2018-03-15T03:09:23.204Z,78.10
2018-03-15T03:11:50.820Z,78.00
2018-03-15T03:14:19.229Z,77.80
2018-03-15T03:16:46.855Z,77.80
2018-03-15T03:19:14.503Z,78.00
2018-03-15T03:21:42.151Z,77.90
2018-03-15T03:24:10.031Z,77.90
2018-03-15T03:26:37.663Z,78.40
2018-03-15T03:29:05.282Z,78.50
2018-03-15T03:31:32.920Z,77.70
2018-03-15T03:34:00.522Z,77.40
2018-03-15T03:36:28.463Z,77.40
2018-03-15T03:38:56.086Z,77.70
2018-03-15T03:41:24.465Z,77.60
2018-03-15T03:43:52.839Z,77.60
2018-03-15T03:46:21.271Z,78.50
2018-03-15T03:48:49.830Z,78.00
2018-03-15T03:51:17.448Z,78.00
2018-03-15T03:53:45.068Z,78.00
2018-03-15T03:56:12.669Z,78.00
2018-03-15T03:58:40.342Z,78.00
2018-03-15T04:01:07.950Z,77.90
2018-03-15T04:03:36.388Z,78.00
2018-03-15T04:06:04.023Z,78.00
2018-03-15T04:08:31.658Z,78.00
2018-03-15T04:11:00.052Z,77.80
2018-03-15T04:13:28.478Z,77.80
2018-03-15T04:15:56.146Z,77.70
2018-03-15T04:18:23.737Z,78.20
2018-03-15T04:20:51.718Z,78.20
2018-03-15T04:23:20.215Z,77.90
2018-03-15T04:25:48.638Z,77.50
2018-03-15T04:28:16.331Z,77.50
2018-03-15T04:30:43.941Z,77.40
2018-03-15T04:33:12.345Z,78.10
2018-03-15T04:35:39.963Z,78.10
2018-03-15T04:38:07.633Z,78.20
2018-03-15T04:40:35.243Z,78.00
2018-03-15T04:43:03.018Z,78.20
2018-03-15T04:45:30.605Z,78.00
2018-03-15T04:47:58.255Z,78.10
2018-03-15T04:50:25.903Z,78.10
2018-03-15T04:52:53.531Z,78.50
2018-03-15T04:55:21.247Z,78.30
2018-03-15T04:57:48.883Z,78.50
2018-03-15T05:00:17.295Z,77.90
2018-03-15T05:02:45.169Z,77.80
2018-03-15T05:05:12.784Z,78.20
2018-03-15T05:07:40.419Z,78.50
2018-03-15T05:10:08.039Z,78.50
2018-03-15T05:12:36.475Z,78.70
2018-03-15T05:15:04.808Z,78.60
2018-03-15T05:17:33.224Z,78.50
2018-03-15T05:20:00.895Z,78.50
2018-03-15T05:22:28.514Z,78.60
2018-03-15T05:24:56.942Z,78.70
2018-03-15T05:27:24.704Z,78.80
2018-03-15T05:29:52.339Z,78.60
2018-03-15T05:32:20.704Z,78.40
2018-03-15T05:34:48.330Z,78.40
2018-03-15T05:37:15.969Z,78.30
2018-03-15T05:39:43.654Z,78.20
2018-03-15T05:42:11.424Z,78.20
2018-03-15T05:44:39.102Z,78.20
2018-03-15T05:47:07.542Z,78.10
2018-03-15T05:49:35.968Z,77.70
2018-03-15T05:52:03.613Z,77.70
2018-03-15T05:54:31.228Z,77.70
2018-03-15T05:56:58.960Z,77.60
2018-03-15T05:59:26.583Z,77.50
2018-03-15T06:01:54.216Z,77.20
2018-03-15T06:04:21.858Z,76.80
2018-03-15T06:06:49.488Z,76.60
2018-03-15T06:09:17.878Z,76.50
2018-03-15T06:11:46.239Z,76.50
2018-03-15T06:14:14.170Z,76.40
2018-03-15T06:16:41.823Z,76.20
2018-03-15T06:19:09.447Z,76.40
2018-03-15T06:21:37.070Z,76.20
2018-03-15T06:24:04.755Z,76.80
2018-03-15T06:26:32.496Z,75.90
2018-03-15T06:29:00.115Z,75.40
2018-03-15T06:31:29.231Z,74.40
2018-03-15T06:33:57.654Z,74.20
2018-03-15T06:36:25.313Z,74.10
2018-03-15T06:38:53.111Z,73.40
2018-03-15T06:41:20.753Z,72.90
2018-03-15T06:43:48.412Z,73.10
2018-03-15T06:46:16.023Z,72.70
2018-03-15T06:48:43.627Z,72.70
2018-03-15T06:51:12.015Z,72.20
2018-03-15T06:53:40.552Z,71.40
2018-03-15T06:56:08.193Z,71.30
2018-03-15T06:58:35.819Z,71.10
2018-03-15T07:01:04.186Z,69.30
2018-03-15T07:03:31.812Z,69.30
2018-03-15T07:06:00.194Z,69.40
2018-03-15T07:08:27.802Z,69.30
2018-03-15T07:10:55.442Z,69.30
2018-03-15T07:13:23.914Z,68.30
2018-03-15T07:15:51.529Z,68.30
2018-03-15T07:18:20.064Z,68.50
2018-03-15T07:20:47.676Z,68.20
2018-03-15T07:23:15.329Z,68.00
2018-03-15T07:25:42.967Z,69.10
2018-03-15T07:28:10.564Z,67.10
2018-03-15T07:30:38.976Z,67.40
2018-03-15T07:33:07.346Z,67.40
2018-03-15T07:35:35.857Z,67.00
2018-03-15T07:38:03.536Z,67.00
2018-03-15T07:40:31.142Z,68.00
2018-03-15T07:42:58.838Z,67.10
2018-03-15T07:45:27.210Z,65.40
2018-03-15T07:47:54.841Z,65.40
2018-03-15T07:50:22.483Z,67.00
2018-03-15T07:52:50.146Z,64.90
2018-03-15T07:55:17.954Z,65.00
2018-03-15T07:57:45.569Z,64.80
2018-03-15T08:00:14.127Z,64.80
2018-03-15T08:02:41.747Z,64.80
2018-03-15T08:05:09.423Z,65.40
2018-03-15T08:07:37.082Z,64.20
2018-03-15T08:10:04.752Z,65.20
2018-03-15T08:12:32.578Z,65.10
2018-03-15T08:15:00.959Z,64.30
2018-03-15T08:17:28.636Z,64.30
2018-03-15T08:19:57.048Z,65.30
2018-03-15T08:22:24.753Z,65.30
2018-03-15T08:24:52.349Z,63.90
2018-03-15T08:27:20.737Z,63.00
2018-03-15T08:29:49.241Z,62.20
2018-03-15T08:32:16.852Z,62.20
2018-03-15T08:34:44.486Z,61.50
2018-03-15T08:37:12.121Z,61.90
2018-03-15T08:39:40.707Z,60.40
2018-03-15T08:42:08.267Z,60.40
2018-03-15T08:44:35.882Z,61.00
2018-03-15T08:47:03.529Z,61.10
2018-03-15T08:49:31.237Z,60.40
2018-03-15T08:51:58.913Z,61.30
2018-03-15T08:54:28.605Z,62.50
2018-03-15T08:56:56.287Z,62.80
2018-03-15T08:59:23.886Z,63.70
2018-03-15T09:01:52.263Z,62.40
2018-03-15T09:04:20.716Z,62.00
2018-03-15T09:06:48.291Z,61.90
2018-03-15T09:09:15.896Z,61.40
2018-03-15T09:11:43.523Z,61.30
2018-03-15T09:14:11.470Z,60.80
2018-03-15T09:16:39.092Z,60.10
2018-03-15T09:19:07.466Z,61.00
2018-03-15T09:21:35.905Z,60.40
2018-03-15T09:24:03.509Z,60.40
2018-03-15T09:26:31.265Z,60.90
2018-03-15T09:28:58.897Z,61.00
2018-03-15T09:31:26.552Z,60.80
2018-03-15T09:33:54.195Z,61.40
2018-03-15T09:36:25.747Z,61.80
2018-03-15T09:38:53.374Z,61.60
2018-03-15T09:41:21.002Z,61.10
2018-03-15T09:43:48.667Z,61.50
2018-03-15T09:46:16.388Z,61.90
2018-03-15T09:48:43.961Z,60.50
2018-03-15T09:51:12.380Z,60.20
2018-03-15T09:53:40.025Z,60.70
2018-03-15T09:56:08.433Z,59.00
2018-03-15T09:58:36.052Z,59.00
2018-03-15T10:01:04.439Z,57.70
2018-03-15T10:03:32.889Z,57.80
2018-03-15T10:06:00.513Z,57.80
2018-03-15T10:08:28.155Z,57.80
2018-03-15T10:10:55.815Z,57.40
2018-03-15T10:13:23.427Z,58.20
2018-03-15T10:15:51.061Z,58.00
2018-03-15T10:18:19.589Z,57.50
2018-03-15T10:20:47.252Z,57.50
2018-03-15T10:23:14.884Z,57.90
2018-03-15T10:25:42.563Z,57.20
2018-03-15T10:28:10.201Z,56.40
2018-03-15T10:30:37.911Z,55.70
2018-03-15T10:33:11.226Z,56.40
2018-03-15T10:35:38.863Z,55.00
2018-03-15T10:38:06.519Z,55.30
2018-03-15T10:40:34.162Z,54.50
2018-03-15T10:43:01.887Z,54.20
2018-03-15T10:45:29.590Z,55.20
2018-03-15T10:47:57.226Z,55.30
2018-03-15T10:50:24.876Z,53.80
2018-03-15T10:52:52.508Z,53.90
2018-03-15T10:55:20.976Z,53.60
2018-03-15T10:57:48.711Z,53.60
2018-03-15T11:00:16.326Z,54.60
2018-03-15T11:02:47.471Z,53.70
2018-03-15T11:05:21.532Z,54.50
2018-03-15T11:07:54.650Z,54.30
2018-03-15T11:10:22.268Z,54.30
2018-03-15T11:12:50.047Z,54.60
2018-03-15T11:15:18.915Z,56.00
2018-03-15T11:17:47.342Z,54.20
2018-03-15T11:20:15.002Z,54.20
2018-03-15T11:22:42.672Z,54.30
2018-03-15T11:25:10.312Z,53.90
2018-03-15T11:27:37.918Z,53.70
2018-03-15T11:30:05.584Z,54.50
2018-03-15T11:32:33.216Z,55.20
2018-03-15T11:35:00.841Z,52.10
2018-03-15T11:37:28.526Z,52.10
2018-03-15T11:39:56.899Z,52.20
2018-03-15T11:42:24.551Z,52.20
2018-03-15T11:44:52.185Z,51.60
2018-03-15T11:47:19.810Z,52.20
2018-03-15T11:49:48.266Z,51.50
2018-03-15T11:52:15.905Z,51.50
2018-03-15T11:54:43.579Z,50.20
2018-03-15T11:57:11.277Z,50.60
2018-03-15T11:59:39.022Z,50.90
2018-03-15T12:02:06.640Z,50.10
2018-03-15T12:04:34.262Z,50.50
2018-03-15T12:07:01.981Z,50.60
2018-03-15T12:09:29.624Z,50.70
2018-03-15T12:11:57.366Z,49.60
2018-03-15T12:14:25.048Z,49.60
2018-03-15T12:16:52.730Z,49.80
2018-03-15T12:19:20.349Z,49.50
2018-03-15T12:21:48.045Z,49.00
2018-03-15T12:24:15.674Z,50.40
2018-03-15T12:26:43.284Z,50.20
2018-03-15T12:29:10.921Z,49.90
2018-03-15T12:31:38.604Z,49.70
2018-03-15T12:34:06.325Z,49.70
2018-03-15T12:36:33.956Z,47.50
2018-03-15T12:39:01.779Z,48.20
2018-03-15T12:41:29.408Z,48.50
2018-03-15T12:43:57.018Z,47.60
2018-03-15T12:46:24.676Z,48.30
2018-03-15T12:48:52.298Z,49.20
2018-03-15T12:51:19.929Z,49.40
2018-03-15T12:53:47.572Z,49.90
2018-03-15T12:56:15.240Z,50.70
2018-03-15T12:58:42.884Z,50.60
2018-03-15T13:01:10.678Z,50.70
2018-03-15T13:03:42.961Z,49.60
2018-03-15T13:06:10.619Z,49.30
2018-03-15T13:08:38.259Z,49.60
2018-03-15T13:11:06.634Z,49.60
2018-03-15T13:13:35.383Z,49.30
2018-03-15T13:16:02.986Z,49.30
2018-03-15T13:18:30.622Z,49.40
2018-03-15T13:20:58.294Z,48.60
2018-03-15T13:23:25.900Z,49.00
2018-03-15T13:25:54.329Z,49.80
2018-03-15T13:28:21.968Z,49.80
2018-03-15T13:30:50.375Z,51.20
2018-03-15T13:33:17.993Z,51.10
2018-03-15T13:35:46.371Z,52.00
2018-03-15T13:38:14.793Z,52.80
2018-03-15T13:40:42.402Z,52.80
2018-03-15T13:43:10.049Z,53.60
2018-03-15T13:45:37.667Z,53.70
2018-03-15T13:48:05.282Z,53.90
2018-03-15T13:50:32.923Z,54.10
2018-03-15T13:53:00.562Z,54.40
2018-03-15T13:55:28.962Z,55.00
2018-03-15T13:57:56.571Z,55.00
2018-03-15T14:00:24.237Z,54.40
2018-03-15T14:02:51.862Z,55.00
2018-03-15T14:05:19.518Z,55.70
2018-03-15T14:07:47.193Z,55.60
2018-03-15T14:10:14.946Z,56.20
2018-03-15T14:12:43.486Z,56.60
2018-03-15T14:15:11.100Z,56.50
2018-03-15T14:17:39.598Z,56.80
2018-03-15T14:20:07.415Z,56.70
2018-03-15T14:22:35.057Z,57.10
2018-03-15T14:25:02.846Z,57.10
2018-03-15T14:27:34.488Z,56.30
2018-03-15T14:30:02.876Z,56.70
2018-03-15T14:32:30.567Z,56.70
2018-03-15T14:34:59.148Z,56.70
2018-03-15T14:37:26.776Z,57.00
2018-03-15T14:39:54.686Z,57.30
2018-03-15T14:42:22.417Z,56.60
2018-03-15T14:44:50.141Z,56.90
2018-03-15T14:47:17.804Z,57.50
2018-03-15T14:49:46.437Z,57.70
2018-03-15T14:52:14.195Z,57.70
2018-03-15T14:54:41.840Z,57.90
2018-03-15T14:57:10.280Z,58.00
2018-03-15T14:59:37.963Z,57.90
2018-03-15T15:02:05.567Z,59.30
2018-03-15T15:04:33.296Z,59.70
2018-03-15T15:07:00.981Z,59.20
2018-03-15T15:09:29.456Z,59.80
2018-03-15T15:11:57.187Z,59.80
2018-03-15T15:14:24.928Z,59.90
2018-03-15T15:16:53.709Z,60.20
2018-03-15T15:19:22.157Z,60.30
2018-03-15T15:21:50.033Z,60.30
2018-03-15T15:24:17.962Z,60.20
2018-03-15T15:26:45.623Z,60.50
2018-03-15T15:29:14.076Z,60.60
2018-03-15T15:31:41.737Z,60.60
2018-03-15T15:34:09.451Z,60.70
2018-03-15T15:36:37.104Z,61.10
2018-03-15T15:39:05.464Z,61.20
2018-03-15T15:41:33.090Z,61.20
2018-03-15T15:44:00.802Z,61.50
2018-03-15T15:46:28.448Z,61.40
2018-03-15T15:48:56.115Z,61.80
2018-03-15T15:51:23.725Z,61.90
2018-03-15T15:53:52.143Z,62.10
2018-03-15T15:56:19.761Z,62.10
2018-03-15T15:58:48.187Z,62.50
2018-03-15T16:01:15.909Z,63.00
2018-03-15T16:03:44.290Z,61.80
2018-03-15T16:06:12.821Z,62.00
2018-03-15T16:08:40.440Z,61.90
2018-03-15T16:11:12.460Z,62.50
2018-03-15T16:13:40.077Z,62.50
2018-03-15T16:16:08.484Z,63.40
2018-03-15T16:18:36.902Z,63.50
2018-03-15T16:21:04.541Z,63.50
2018-03-15T16:23:32.311Z,63.80
2018-03-15T16:25:59.950Z,64.20
2018-03-15T16:28:27.648Z,64.10
2018-03-15T16:30:55.298Z,64.30
2018-03-15T16:33:23.013Z,64.50
2018-03-15T16:35:50.853Z,64.60
2018-03-15T16:38:18.532Z,64.80
2018-03-15T16:40:46.185Z,65.20
2018-03-15T16:43:13.864Z,65.30
2018-03-15T16:45:41.603Z,65.80
2018-03-15T16:48:09.406Z,66.00
2018-03-15T16:50:37.043Z,66.20
2018-03-15T16:53:05.462Z,66.20
2018-03-15T16:55:33.131Z,66.70
2018-03-15T16:58:01.773Z,66.30
2018-03-15T17:00:30.161Z,67.50
2018-03-15T17:02:58.554Z,66.00
2018-03-15T17:05:26.202Z,65.90
2018-03-15T17:07:54.583Z,66.10
2018-03-15T17:10:23.062Z,66.50
2018-03-15T17:12:51.510Z,66.80
2018-03-15T17:15:19.941Z,67.00
2018-03-15T17:17:48.372Z,67.20
2018-03-15T17:20:16.014Z,67.20
2018-03-15T17:22:43.821Z,67.00
2018-03-15T17:25:11.508Z,67.20
2018-03-15T17:27:39.220Z,67.20
2018-03-15T17:30:06.996Z,68.00
2018-03-15T17:32:34.824Z,66.70
2018-03-15T17:35:02.445Z,66.80
2018-03-15T17:37:30.104Z,67.10
2018-03-15T17:39:57.768Z,67.30
2018-03-15T17:42:25.434Z,67.40
2018-03-15T17:44:53.165Z,67.80
2018-03-15T17:47:21.590Z,68.00
2018-03-15T17:49:49.560Z,68.00
2018-03-15T17:52:17.275Z,68.10
2018-03-15T17:54:45.782Z,68.40
2018-03-15T17:57:14.229Z,68.50
2018-03-15T17:59:41.934Z,68.40
2018-03-15T18:02:10.409Z,68.50
2018-03-15T18:04:38.992Z,68.50
2018-03-15T18:07:06.674Z,68.70
2018-03-15T18:09:35.295Z,68.80
2018-03-15T18:12:02.972Z,68.80
2018-03-15T18:14:30.645Z,69.00
2018-03-15T18:16:58.391Z,69.20
2018-03-15T18:19:26.196Z,69.20
2018-03-15T18:21:53.916Z,69.50
2018-03-15T18:24:21.676Z,69.60
2018-03-15T18:26:50.195Z,69.90
2018-03-15T18:29:17.948Z,69.80
2018-03-15T18:31:46.659Z,70.10
2018-03-15T18:34:14.367Z,70.10
2018-03-15T18:36:42.149Z,70.30
2018-03-15T18:39:10.707Z,70.50
2018-03-15T18:41:38.948Z,70.40
2018-03-15T18:44:07.263Z,70.40
2018-03-15T18:46:35.104Z,71.00
2018-03-15T18:49:02.815Z,70.50
2018-03-15T18:51:30.571Z,71.00
2018-03-15T18:53:58.520Z,70.70
2018-03-15T18:56:26.498Z,70.60
2018-03-15T18:58:54.235Z,70.60
2018-03-15T19:01:22.111Z,70.70
2018-03-15T19:03:50.830Z,70.70
2018-03-15T19:06:18.551Z,70.70
2018-03-15T19:08:47.056Z,70.90
2018-03-15T19:11:15.048Z,71.00
2018-03-15T19:13:42.865Z,71.00
2018-03-15T19:16:11.533Z,71.20
2018-03-15T19:18:39.371Z,71.20
2018-03-15T19:21:07.097Z,71.50
2018-03-15T19:23:34.855Z,71.50
2018-03-15T19:26:03.628Z,71.80
2018-03-15T19:28:31.512Z,71.90
2018-03-15T19:30:59.312Z,72.00
2018-03-15T19:33:27.088Z,72.00
2018-03-15T19:35:56.992Z,72.30
2018-03-15T19:38:24.850Z,72.30
2018-03-15T19:40:53.221Z,72.40
2018-03-15T19:43:20.966Z,72.40
2018-03-15T19:45:49.123Z,72.30
2018-03-15T19:48:17.424Z,72.50
2018-03-15T19:50:45.204Z,72.50
2018-03-15T19:53:13.408Z,72.50
2018-03-15T19:55:41.141Z,72.30
2018-03-15T19:58:09.050Z,72.20
2018-03-15T20:00:38.523Z,72.50
2018-03-15T20:03:06.678Z,72.50
2018-03-15T20:05:35.200Z,72.80
2018-03-15T20:08:02.975Z,72.60
2018-03-15T20:10:30.757Z,72.50
2018-03-15T20:12:59.218Z,72.40
2018-03-15T20:15:27.022Z,72.30
2018-03-15T20:17:54.976Z,72.40
2018-03-15T20:20:23.444Z,72.40
2018-03-15T20:22:56.938Z,72.50
2018-03-15T20:25:25.028Z,72.60
2018-03-15T20:28:09.772Z,72.60
2018-03-15T20:30:37.858Z,72.50
2018-03-15T20:33:11.326Z,72.60
2018-03-15T20:35:39.790Z,72.50
2018-03-15T20:38:08.338Z,72.90
2018-03-15T20:40:41.821Z,72.80
2018-03-15T20:43:10.428Z,72.80
2018-03-15T20:45:43.774Z,72.70
2018-03-15T20:48:17.113Z,72.90
2018-03-15T20:50:45.298Z,72.70
2018-03-15T20:53:13.086Z,73.00
2018-03-15T20:55:41.786Z,73.10
2018-03-15T20:58:09.666Z,73.00
2018-03-15T21:00:38.278Z,73.20
2018-03-15T21:03:07.445Z,73.40
2018-03-15T21:05:36.651Z,73.60
2018-03-15T21:08:05.143Z,73.70
2018-03-15T21:10:33.262Z,73.70
2018-03-15T21:13:00.968Z,73.80
2018-03-15T21:15:28.705Z,73.60
2018-03-15T21:17:56.607Z,73.50
2018-03-15T21:20:24.405Z,73.50
2018-03-15T21:22:53.022Z,73.80
2018-03-15T21:25:20.901Z,73.70
2018-03-15T21:27:48.682Z,74.00
2018-03-15T21:30:16.392Z,73.90
2018-03-15T21:32:44.110Z,73.80
2018-03-15T21:35:11.826Z,74.00
2018-03-15T21:37:42.344Z,73.90
2018-03-15T21:40:10.076Z,73.90
2018-03-15T21:42:38.591Z,73.90
2018-03-15T21:45:06.300Z,73.90
2018-03-15T21:47:34.782Z,73.80
2018-03-15T21:50:03.244Z,73.90
2018-03-15T21:52:31.071Z,73.70
2018-03-15T21:54:58.801Z,73.70
2018-03-15T21:57:26.443Z,73.90
2018-03-15T21:59:54.275Z,74.00
2018-03-15T22:02:22.152Z,74.30
2018-03-15T22:04:49.837Z,74.40
2018-03-15T22:07:17.526Z,74.50
2018-03-15T22:09:46.853Z,74.20
2018-03-15T22:12:15.375Z,74.20
2018-03-15T22:14:43.041Z,74.20
2018-03-15T22:17:10.707Z,74.10
2018-03-15T22:19:38.365Z,74.20
2018-03-15T22:22:06.044Z,74.20
2018-03-15T22:24:33.679Z,74.60
2018-03-15T22:27:02.152Z,74.80
2018-03-15T22:29:29.790Z,74.70
2018-03-15T22:31:57.437Z,74.90
2018-03-15T22:34:25.134Z,74.80
2018-03-15T22:36:52.807Z,74.70
2018-03-15T22:39:20.432Z,74.20
2018-03-15T22:41:48.088Z,73.90
2018-03-15T22:44:15.686Z,73.30
2018-03-15T22:46:43.656Z,72.80
2018-03-15T22:49:11.456Z,72.50
2018-03-15T22:51:39.124Z,72.20
2018-03-15T22:54:06.822Z,71.60
2018-03-15T22:56:34.548Z,71.40
2018-03-15T22:59:03.020Z,71.10
2018-03-15T23:01:30.658Z,71.10
2018-03-15T23:03:58.313Z,70.80
2018-03-15T23:06:26.195Z,71.00
2018-03-15T23:08:54.340Z,71.20
2018-03-15T23:11:22.758Z,71.50
2018-03-15T23:13:50.399Z,71.40
2018-03-15T23:16:18.073Z,71.40
2018-03-15T23:18:46.466Z,71.00
2018-03-15T23:21:14.090Z,71.00
2018-03-15T23:23:41.714Z,70.90
2018-03-15T23:26:09.354Z,70.70
2018-03-15T23:28:37.869Z,71.30
2018-03-15T23:31:05.561Z,71.30
2018-03-15T23:33:33.192Z,71.30
2018-03-15T23:36:00.878Z,71.10
2018-03-15T23:38:28.537Z,69.00
2018-03-15T23:40:56.195Z,67.80
2018-03-15T23:43:24.080Z,67.80
2018-03-15T23:45:51.683Z,67.50
2018-03-15T23:48:19.295Z,67.40
2018-03-15T23:50:46.929Z,67.20
2018-03-15T23:53:15.408Z,67.20
2018-03-15T23:55:43.053Z,67.20
2018-03-15T23:58:10.784Z,67.60
